createdAt,value
2023-02-19T00:01:15.681Z,12.10
2023-02-19T00:03:47.549Z,12.00
2023-02-19T00:06:14.190Z,12.10
2023-02-19T00:08:40.830Z,12.00
2023-02-19T00:11:09.671Z,12.10
2023-02-19T00:13:40.753Z,12.10
2023-02-19T00:16:12.504Z,12.10
2023-02-19T00:18:39.257Z,12.00
2023-02-19T00:21:06.152Z,11.90
2023-02-19T00:23:33.047Z,11.90
2023-02-19T00:26:18.328Z,11.90
2023-02-19T00:28:46.395Z,11.80
2023-02-19T00:31:23.731Z,11.70
2023-02-19T00:33:51.908Z,11.80
2023-02-19T00:36:18.943Z,11.70
2023-02-19T00:38:46.026Z,11.70
2023-02-19T00:41:19.636Z,11.80
2023-02-19T00:43:46.264Z,11.70
2023-02-19T00:46:12.977Z,11.70
2023-02-19T00:48:39.582Z,11.80
2023-02-19T00:51:06.335Z,11.90
2023-02-19T00:53:32.996Z,11.90
2023-02-19T00:55:59.617Z,11.90
2023-02-19T00:58:26.260Z,11.90
2023-02-19T01:00:52.860Z,11.80
2023-02-19T01:03:19.600Z,11.80
2023-02-19T01:05:46.216Z,11.80
2023-02-19T01:08:12.869Z,11.80
2023-02-19T01:10:39.442Z,11.80
2023-02-19T01:13:06.353Z,11.70
2023-02-19T01:15:33.548Z,11.60
2023-02-19T01:18:00.256Z,11.60
2023-02-19T01:20:27.025Z,11.50
2023-02-19T01:22:53.933Z,11.70
2023-02-19T01:25:20.493Z,11.70
2023-02-19T01:27:47.117Z,11.70
2023-02-19T01:30:13.837Z,11.60
2023-02-19T01:32:40.444Z,11.80
2023-02-19T01:35:07.255Z,11.80
2023-02-19T01:37:33.947Z,11.80
2023-02-19T01:40:00.641Z,11.70
2023-02-19T01:42:27.282Z,11.70
2023-02-19T01:45:15.768Z,11.70
2023-02-19T01:47:42.498Z,11.70
2023-02-19T01:50:09.307Z,11.80
2023-02-19T01:52:36.681Z,11.70
2023-02-19T01:55:04.861Z,11.70
2023-02-19T01:57:34.275Z,11.80
2023-02-19T02:00:06.753Z,11.80
2023-02-19T02:02:33.448Z,11.80
2023-02-19T02:05:00.725Z,11.80
2023-02-19T02:07:46.160Z,11.80
2023-02-19T02:10:21.480Z,11.80
2023-02-19T02:12:49.504Z,11.90
2023-02-19T02:15:16.968Z,11.90
2023-02-19T02:18:02.238Z,11.90
2023-02-19T02:20:47.181Z,11.90
2023-02-19T02:23:13.775Z,11.80
2023-02-19T02:25:41.182Z,11.90
2023-02-19T02:28:19.900Z,12.00
2023-02-19T02:30:48.871Z,11.90
2023-02-19T02:33:30.809Z,11.80
2023-02-19T02:36:03.503Z,11.90
2023-02-19T02:38:31.944Z,11.90
2023-02-19T02:40:59.005Z,11.80
2023-02-19T02:43:25.812Z,11.90
2023-02-19T02:45:52.486Z,12.00
2023-02-19T02:48:22.265Z,12.00
2023-02-19T02:50:55.180Z,11.90
2023-02-19T02:53:43.601Z,12.00
2023-02-19T02:56:11.083Z,12.00
2023-02-19T02:58:38.107Z,12.00
2023-02-19T03:01:28.084Z,12.10
2023-02-19T03:03:58.136Z,12.00
2023-02-19T03:06:25.871Z,12.00
2023-02-19T03:08:55.227Z,12.10
2023-02-19T03:11:40.774Z,12.00
2023-02-19T03:14:37.153Z,12.10
2023-02-19T03:17:27.205Z,12.00
2023-02-19T03:19:55.948Z,11.80
2023-02-19T03:22:34.327Z,12.00
2023-02-19T03:25:23.701Z,11.90
2023-02-19T03:27:50.931Z,11.80
2023-02-19T03:30:19.920Z,11.70
2023-02-19T03:32:49.351Z,11.70
2023-02-19T03:35:21.222Z,12.00
2023-02-19T03:37:54.558Z,11.90
2023-02-19T03:40:23.553Z,11.90
2023-02-19T03:42:56.602Z,11.80
2023-02-19T03:45:23.169Z,11.90
2023-02-19T03:47:55.011Z,12.00
2023-02-19T03:50:24.409Z,11.80
2023-02-19T03:52:59.626Z,11.70
2023-02-19T03:55:37.154Z,12.00
2023-02-19T03:58:16.597Z,11.80
2023-02-19T04:00:49.630Z,11.90
2023-02-19T04:03:20.736Z,11.90
2023-02-19T04:05:48.854Z,11.80
2023-02-19T04:08:17.841Z,11.80
2023-02-19T04:10:46.057Z,11.90
2023-02-19T04:13:39.109Z,11.90
2023-02-19T04:16:08.025Z,11.90
2023-02-19T04:18:38.028Z,11.90
2023-02-19T04:21:05.496Z,12.20
2023-02-19T04:23:35.886Z,12.20
2023-02-19T04:26:03.295Z,12.10
2023-02-19T04:28:30.022Z,12.20
2023-02-19T04:30:56.745Z,12.00
2023-02-19T04:33:23.414Z,12.10
2023-02-19T04:35:50.084Z,11.90
2023-02-19T04:38:16.706Z,11.80
2023-02-19T04:40:43.304Z,11.80
2023-02-19T04:43:10.008Z,11.70
2023-02-19T04:45:39.796Z,11.80
2023-02-19T04:48:06.413Z,11.60
2023-02-19T04:50:33.155Z,11.70
2023-02-19T04:52:59.804Z,11.70
2023-02-19T04:55:26.557Z,11.60
2023-02-19T04:57:53.177Z,11.20
2023-02-19T05:00:19.921Z,11.00
2023-02-19T05:02:49.001Z,10.80
2023-02-19T05:05:15.681Z,10.50
2023-02-19T05:07:42.278Z,10.60
2023-02-19T05:10:08.937Z,10.50
2023-02-19T05:12:35.535Z,10.50
2023-02-19T05:15:02.158Z,10.50
2023-02-19T05:17:28.827Z,10.50
2023-02-19T05:19:55.518Z,10.50
2023-02-19T05:22:22.212Z,10.40
2023-02-19T05:24:48.837Z,10.40
2023-02-19T05:27:15.494Z,10.20
2023-02-19T05:29:42.094Z,10.10
2023-02-19T05:32:08.817Z,10.20
2023-02-19T05:34:35.436Z,10.30
2023-02-19T05:37:02.044Z,10.30
2023-02-19T05:39:28.710Z,10.20
2023-02-19T05:41:55.357Z,10.20
2023-02-19T05:44:22.110Z,10.40
2023-02-19T05:46:48.710Z,10.30
2023-02-19T05:49:15.329Z,10.30
2023-02-19T05:51:41.968Z,10.30
2023-02-19T05:54:08.639Z,10.40
2023-02-19T05:56:36.554Z,10.40
2023-02-19T05:59:06.590Z,10.50
2023-02-19T06:01:33.969Z,10.30
2023-02-19T06:04:00.701Z,10.30
2023-02-19T06:06:27.503Z,10.20
2023-02-19T06:08:54.453Z,10.10
2023-02-19T06:11:21.031Z,10.40
2023-02-19T06:13:49.366Z,10.10
2023-02-19T06:16:17.679Z,10.10
2023-02-19T06:18:44.882Z,9.90
2023-02-19T06:21:12.515Z,10.10
2023-02-19T06:23:39.528Z,10.00
2023-02-19T06:26:06.193Z,10.10
2023-02-19T06:28:32.843Z,10.10
2023-02-19T06:30:59.450Z,10.20
2023-02-19T06:33:26.626Z,10.30
2023-02-19T06:35:53.427Z,10.20
2023-02-19T06:38:22.904Z,10.40
2023-02-19T06:40:49.522Z,10.30
2023-02-19T06:43:16.113Z,10.50
2023-02-19T06:45:42.745Z,10.30
2023-02-19T06:48:09.401Z,10.20
2023-02-19T06:50:35.984Z,10.30
2023-02-19T06:53:02.899Z,10.20
2023-02-19T06:55:29.512Z,10.10
2023-02-19T06:57:56.134Z,10.10
2023-02-19T07:00:22.895Z,10.10
2023-02-19T07:02:49.896Z,10.10
2023-02-19T07:05:16.654Z,10.00
2023-02-19T07:07:45.405Z,10.20
2023-02-19T07:10:12.043Z,9.90
2023-02-19T07:12:38.640Z,9.90
2023-02-19T07:15:05.331Z,10.10
2023-02-19T07:17:31.998Z,10.10
2023-02-19T07:19:58.715Z,10.00
2023-02-19T07:22:25.372Z,9.90
2023-02-19T07:24:52.059Z,9.90
2023-02-19T07:27:19.039Z,9.90
2023-02-19T07:29:45.722Z,9.80
2023-02-19T07:32:12.356Z,9.80
2023-02-19T07:34:39.029Z,9.80
2023-02-19T07:37:05.644Z,9.90
2023-02-19T07:39:32.268Z,9.90
2023-02-19T07:41:58.876Z,9.90
2023-02-19T07:44:25.489Z,10.00
2023-02-19T07:46:52.097Z,10.00
2023-02-19T07:49:18.814Z,10.10
2023-02-19T07:51:45.497Z,10.10
2023-02-19T07:54:12.512Z,10.10
2023-02-19T07:56:39.201Z,10.20
2023-02-19T07:59:05.857Z,10.20
2023-02-19T08:01:51.227Z,10.00
2023-02-19T08:04:17.901Z,9.90
2023-02-19T08:06:44.629Z,9.90
2023-02-19T08:09:11.402Z,10.10
2023-02-19T08:11:56.834Z,10.00
2023-02-19T08:14:26.817Z,10.20
2023-02-19T08:16:53.876Z,10.10
2023-02-19T08:19:20.780Z,10.10
2023-02-19T08:21:47.488Z,10.20
2023-02-19T08:24:14.148Z,10.20
2023-02-19T08:26:40.815Z,10.30
2023-02-19T08:29:07.453Z,10.40
2023-02-19T08:31:34.644Z,10.60
2023-02-19T08:34:01.349Z,10.80
2023-02-19T08:36:28.042Z,10.70
2023-02-19T08:38:54.669Z,10.80
2023-02-19T08:41:21.641Z,10.90
2023-02-19T08:43:48.305Z,10.90
2023-02-19T08:46:15.306Z,11.10
2023-02-19T08:48:41.971Z,11.00
2023-02-19T08:51:10.368Z,11.00
2023-02-19T08:53:37.933Z,10.90
2023-02-19T08:56:08.625Z,11.00
2023-02-19T08:58:36.112Z,11.00
2023-02-19T09:01:03.389Z,11.10
2023-02-19T09:03:30.172Z,11.10
2023-02-19T09:06:00.898Z,11.40
2023-02-19T09:08:27.632Z,11.70
2023-02-19T09:10:58.442Z,11.80
2023-02-19T09:13:25.206Z,11.90
2023-02-19T09:15:51.846Z,12.00
2023-02-19T09:18:18.526Z,12.20
2023-02-19T09:20:45.394Z,12.20
2023-02-19T09:23:12.009Z,12.40
2023-02-19T09:25:38.643Z,12.40
2023-02-19T09:28:05.304Z,12.30
2023-02-19T09:30:32.067Z,12.50
2023-02-19T09:32:58.712Z,12.60
2023-02-19T09:35:25.365Z,12.40
2023-02-19T09:37:51.970Z,12.00
2023-02-19T09:40:21.667Z,12.10
2023-02-19T09:42:49.748Z,12.20
2023-02-19T09:45:21.706Z,12.40
2023-02-19T09:47:48.655Z,12.50
2023-02-19T09:50:17.382Z,12.20
2023-02-19T09:52:43.965Z,12.00
2023-02-19T09:55:10.531Z,11.20
2023-02-19T09:57:37.439Z,10.70
2023-02-19T10:00:19.722Z,10.40
2023-02-19T10:02:46.463Z,10.20
2023-02-19T10:05:14.221Z,9.90
2023-02-19T10:07:45.375Z,9.90
2023-02-19T10:10:15.002Z,9.80
2023-02-19T10:12:45.706Z,9.90
2023-02-19T10:15:16.831Z,9.70
2023-02-19T10:17:43.489Z,9.80
2023-02-19T10:20:15.360Z,9.80
2023-02-19T10:22:42.573Z,9.80
2023-02-19T10:25:15.968Z,9.70
2023-02-19T10:27:43.130Z,9.60
2023-02-19T10:30:18.547Z,9.70
2023-02-19T10:32:58.476Z,9.80
2023-02-19T10:35:25.223Z,9.90
2023-02-19T10:37:52.376Z,10.00
2023-02-19T10:40:20.547Z,9.90
2023-02-19T10:42:48.353Z,10.10
2023-02-19T10:45:34.836Z,10.10
2023-02-19T10:48:01.580Z,9.90
2023-02-19T10:50:30.917Z,10.10
2023-02-19T10:52:58.854Z,10.00
2023-02-19T10:55:25.791Z,9.90
2023-02-19T10:57:52.469Z,9.70
2023-02-19T11:00:22.690Z,9.70
2023-02-19T11:02:49.787Z,9.60
2023-02-19T11:05:19.769Z,9.60
2023-02-19T11:07:56.752Z,9.60
2023-02-19T11:10:27.170Z,9.60
2023-02-19T11:12:59.072Z,9.70
2023-02-19T11:15:25.751Z,9.60
2023-02-19T11:18:15.641Z,9.50
2023-02-19T11:20:48.262Z,9.60
2023-02-19T11:23:16.894Z,9.50
2023-02-19T11:25:47.241Z,9.60
2023-02-19T11:28:17.808Z,9.50
2023-02-19T11:30:45.521Z,9.70
2023-02-19T11:33:19.846Z,9.80
2023-02-19T11:35:47.389Z,9.90
2023-02-19T11:38:15.103Z,10.00
2023-02-19T11:40:41.685Z,10.00
2023-02-19T11:43:31.267Z,9.90
2023-02-19T11:45:57.821Z,9.80
2023-02-19T11:48:36.498Z,9.80
2023-02-19T11:51:03.121Z,9.80
2023-02-19T11:53:32.190Z,10.10
2023-02-19T11:56:08.164Z,10.20
2023-02-19T11:58:34.862Z,10.30
2023-02-19T12:01:21.727Z,10.40
2023-02-19T12:04:07.229Z,10.40
2023-02-19T12:06:42.633Z,10.50
2023-02-19T12:09:28.024Z,10.50
2023-02-19T12:12:00.815Z,10.50
2023-02-19T12:14:45.754Z,10.50
2023-02-19T12:17:23.501Z,10.70
2023-02-19T12:20:01.537Z,10.60
2023-02-19T12:22:33.234Z,10.60
2023-02-19T12:25:13.113Z,10.70
2023-02-19T12:27:42.787Z,10.70
2023-02-19T12:30:09.554Z,10.80
2023-02-19T12:32:38.940Z,10.80
2023-02-19T12:35:14.796Z,10.70
2023-02-19T12:37:47.495Z,10.70
2023-02-19T12:40:17.082Z,10.80
2023-02-19T12:42:46.725Z,10.70
2023-02-19T12:45:20.190Z,10.80
2023-02-19T12:48:10.089Z,10.70
2023-02-19T12:50:37.697Z,10.70
2023-02-19T12:53:14.845Z,10.50
2023-02-19T12:55:43.429Z,10.50
2023-02-19T12:58:13.885Z,10.40
2023-02-19T13:00:45.593Z,10.30
2023-02-19T13:03:27.468Z,10.10
2023-02-19T13:05:58.695Z,10.00
2023-02-19T13:08:28.508Z,10.00
2023-02-19T13:10:59.230Z,9.90
2023-02-19T13:13:28.288Z,10.10
2023-02-19T13:16:02.409Z,10.10
2023-02-19T13:18:32.528Z,10.10
2023-02-19T13:20:59.737Z,10.10
2023-02-19T13:23:55.291Z,10.00
2023-02-19T13:26:21.932Z,9.90
2023-02-19T13:29:03.911Z,9.90
2023-02-19T13:31:39.575Z,9.80
2023-02-19T13:34:18.757Z,9.80
2023-02-19T13:36:45.937Z,9.90
2023-02-19T13:39:18.269Z,9.90
2023-02-19T13:41:52.237Z,10.10
2023-02-19T13:44:24.552Z,10.20
2023-02-19T13:46:51.530Z,10.20
2023-02-19T13:49:24.416Z,10.30
2023-02-19T13:51:52.252Z,10.30
2023-02-19T13:54:23.752Z,10.30
2023-02-19T13:56:50.563Z,10.40
2023-02-19T13:59:25.539Z,10.50
2023-02-19T14:01:58.301Z,10.40
2023-02-19T14:04:43.935Z,10.40
2023-02-19T14:07:10.494Z,10.20
2023-02-19T14:09:37.270Z,10.20
2023-02-19T14:12:05.542Z,10.20
2023-02-19T14:14:32.159Z,10.00
2023-02-19T14:17:04.499Z,10.10
2023-02-19T14:19:49.853Z,10.20
2023-02-19T14:22:35.270Z,10.20
2023-02-19T14:25:04.076Z,10.30
2023-02-19T14:27:31.305Z,10.60
2023-02-19T14:29:58.459Z,10.60
2023-02-19T14:32:25.484Z,10.50
2023-02-19T14:34:52.497Z,10.70
2023-02-19T14:37:21.034Z,10.80
2023-02-19T14:39:47.850Z,10.60
2023-02-19T14:42:17.559Z,10.40
2023-02-19T14:44:48.931Z,10.30
2023-02-19T14:47:17.631Z,10.20
2023-02-19T14:49:46.244Z,10.10
2023-02-19T14:52:25.012Z,10.10
2023-02-19T14:54:56.750Z,10.10
2023-02-19T14:57:26.001Z,10.10
2023-02-19T14:59:58.645Z,10.10
2023-02-19T15:02:26.247Z,10.00
2023-02-19T15:04:53.406Z,10.10
2023-02-19T15:07:21.569Z,10.10
2023-02-19T15:09:50.358Z,10.20
2023-02-19T15:12:21.667Z,10.20
2023-02-19T15:14:49.675Z,10.10
2023-02-19T15:17:19.759Z,10.00
2023-02-19T15:19:50.462Z,10.00
2023-02-19T15:22:19.740Z,9.90
2023-02-19T15:24:48.821Z,9.90
2023-02-19T15:27:17.693Z,10.00
2023-02-19T15:29:48.598Z,10.00
2023-02-19T15:32:33.442Z,9.90
2023-02-19T15:35:03.379Z,9.90
2023-02-19T15:37:31.350Z,9.90
2023-02-19T15:40:00.600Z,9.90
2023-02-19T15:42:33.225Z,10.10
2023-02-19T15:45:06.046Z,10.30
2023-02-19T15:47:45.715Z,10.20
2023-02-19T15:50:12.415Z,10.00
2023-02-19T15:52:49.136Z,9.90
2023-02-19T15:55:29.879Z,9.90
2023-02-19T15:58:08.559Z,9.80
2023-02-19T16:00:40.755Z,9.80
2023-02-19T16:03:13.334Z,9.70
2023-02-19T16:05:41.805Z,9.60
2023-02-19T16:08:16.631Z,9.70
2023-02-19T16:10:59.922Z,9.70
2023-02-19T16:13:27.913Z,9.70
2023-02-19T16:16:00.922Z,9.70
2023-02-19T16:18:27.780Z,9.60
2023-02-19T16:20:54.436Z,9.60
2023-02-19T16:23:27.357Z,9.60
2023-02-19T16:25:58.701Z,9.60
2023-02-19T16:28:26.482Z,9.50
2023-02-19T16:31:00.475Z,9.50
2023-02-19T16:33:33.178Z,9.40
2023-02-19T16:36:15.454Z,9.40
2023-02-19T16:38:58.227Z,9.40
2023-02-19T16:41:25.040Z,9.40
2023-02-19T16:43:51.634Z,9.40
2023-02-19T16:46:18.389Z,9.40
2023-02-19T16:48:45.132Z,9.40
2023-02-19T16:51:15.741Z,9.30
2023-02-19T16:53:42.410Z,9.30
2023-02-19T16:56:15.167Z,9.30
2023-02-19T16:58:44.175Z,9.30
2023-02-19T17:01:11.112Z,9.30
2023-02-19T17:03:38.294Z,9.30
2023-02-19T17:06:05.100Z,9.30
2023-02-19T17:08:33.697Z,9.20
2023-02-19T17:11:02.187Z,9.20
2023-02-19T17:13:29.457Z,9.10
2023-02-19T17:15:58.269Z,9.20
2023-02-19T17:18:26.075Z,9.20
2023-02-19T17:21:05.430Z,9.10
2023-02-19T17:23:32.105Z,9.10
2023-02-19T17:25:58.845Z,9.00
2023-02-19T17:28:27.446Z,8.90
2023-02-19T17:30:54.158Z,8.90
2023-02-19T17:33:23.243Z,9.00
2023-02-19T17:35:49.885Z,8.90
2023-02-19T17:38:35.190Z,8.90
2023-02-19T17:41:01.840Z,8.90
2023-02-19T17:43:33.603Z,8.90
2023-02-19T17:46:00.203Z,8.90
2023-02-19T17:48:27.103Z,8.90
2023-02-19T17:50:55.838Z,8.90
2023-02-19T17:53:22.518Z,8.90
2023-02-19T17:55:49.138Z,8.90
2023-02-19T17:58:16.851Z,8.80
2023-02-19T18:00:43.625Z,8.80
2023-02-19T18:03:10.603Z,8.80
2023-02-19T18:05:38.345Z,8.80
2023-02-19T18:08:05.173Z,8.80
2023-02-19T18:10:31.979Z,8.80
2023-02-19T18:13:08.902Z,8.80
2023-02-19T18:15:41.352Z,8.80
2023-02-19T18:18:09.796Z,8.80
2023-02-19T18:20:36.805Z,8.80
2023-02-19T18:23:03.662Z,8.80
2023-02-19T18:25:33.254Z,8.80
2023-02-19T18:28:02.278Z,8.80
2023-02-19T18:30:29.972Z,8.80
2023-02-19T18:32:57.481Z,8.80
2023-02-19T18:35:24.100Z,8.80
2023-02-19T18:37:55.194Z,8.80
2023-02-19T18:40:25.860Z,8.80
2023-02-19T18:42:52.805Z,8.70
2023-02-19T18:45:19.651Z,8.70
2023-02-19T18:47:49.793Z,8.70
2023-02-19T18:50:17.989Z,8.70
2023-02-19T18:52:44.718Z,8.70
2023-02-19T18:55:11.581Z,8.80
2023-02-19T18:57:38.356Z,8.90
2023-02-19T19:00:06.456Z,8.90
2023-02-19T19:02:48.459Z,8.90
2023-02-19T19:05:22.573Z,9.00
2023-02-19T19:07:54.409Z,8.90
2023-02-19T19:10:21.574Z,9.00
2023-02-19T19:12:49.615Z,9.00
2023-02-19T19:15:18.334Z,8.90
2023-02-19T19:17:45.582Z,8.90
2023-02-19T19:25:20.617Z,9.10
2023-02-19T19:26:45.359Z,9.10
2023-02-19T19:29:14.540Z,9.10
2023-02-19T19:31:41.705Z,9.10
2023-02-19T19:34:08.799Z,9.20
2023-02-19T19:36:35.621Z,9.20
2023-02-19T19:39:24.570Z,9.10
2023-02-19T19:41:55.198Z,9.00
2023-02-19T19:44:22.144Z,9.00
2023-02-19T19:46:49.107Z,9.00
2023-02-19T19:49:19.233Z,9.00
2023-02-19T19:51:45.866Z,9.10
2023-02-19T19:54:13.395Z,9.00
2023-02-19T19:56:44.088Z,9.10
2023-02-19T19:59:11.532Z,9.10
2023-02-19T20:01:43.061Z,9.10
2023-02-19T20:04:51.151Z,9.10
2023-02-19T20:28:58.136Z,9.00
2023-02-19T20:35:38.346Z,8.90
2023-02-19T20:39:31.366Z,8.90
2023-02-19T20:40:48.674Z,8.90
2023-02-19T20:46:13.032Z,8.90
2023-02-19T20:49:04.923Z,8.80
2023-02-19T20:51:33.397Z,8.80
2023-02-19T20:54:08.209Z,8.80
2023-02-19T20:56:34.835Z,8.90
2023-02-19T21:08:36.576Z,8.90
2023-02-19T21:12:26.618Z,8.90
2023-02-19T21:13:56.811Z,8.90
2023-02-19T21:16:36.422Z,8.90
2023-02-19T21:19:03.233Z,8.90
2023-02-19T21:24:58.241Z,8.90
2023-02-19T21:27:24.913Z,8.90
2023-02-19T21:29:51.751Z,8.90
2023-02-19T21:32:18.511Z,8.90
2023-02-19T21:34:45.219Z,8.90
2023-02-19T21:37:23.766Z,8.90
2023-02-19T21:39:50.554Z,8.90
2023-02-19T21:42:18.370Z,8.90
2023-02-19T21:46:24.578Z,8.80
2023-02-19T21:50:49.459Z,8.80
2023-02-19T21:54:14.952Z,8.80
2023-02-19T21:56:11.309Z,8.80
2023-02-19T21:58:53.403Z,8.80
2023-02-19T22:01:23.696Z,8.80
2023-02-19T22:04:12.921Z,8.90
2023-02-19T22:06:40.363Z,8.80
2023-02-19T22:09:07.635Z,8.90
2023-02-19T22:11:34.340Z,8.90
2023-02-19T22:14:01.155Z,8.90
2023-02-19T22:16:28.813Z,9.10
2023-02-19T22:18:57.051Z,9.00
2023-02-19T22:21:25.032Z,9.00
2023-02-19T22:23:52.299Z,8.90
2023-02-19T22:26:23.263Z,8.90
2023-02-19T22:28:50.000Z,8.90
2023-02-19T22:31:17.192Z,9.00
2023-02-19T22:33:53.912Z,9.00
2023-02-19T22:36:21.649Z,9.00
2023-02-19T22:38:48.729Z,8.90
2023-02-19T22:41:16.246Z,8.90
2023-02-19T22:43:43.256Z,9.00
2023-02-19T22:46:12.408Z,8.90
2023-02-19T22:48:39.492Z,8.90
2023-02-19T22:51:13.372Z,8.90
2023-02-19T22:53:46.908Z,8.90
2023-02-19T22:56:14.280Z,8.90
2023-02-19T22:58:41.232Z,8.80
2023-02-19T23:01:08.724Z,8.80
2023-02-19T23:03:37.903Z,8.80
2023-02-19T23:06:04.736Z,8.80
2023-02-19T23:08:31.427Z,8.80
2023-02-19T23:10:58.182Z,8.80
2023-02-19T23:13:24.860Z,8.80
2023-02-19T23:15:51.510Z,8.80
2023-02-19T23:18:18.178Z,8.80
2023-02-19T23:27:40.918Z,8.90
2023-02-19T23:30:07.865Z,8.80
2023-02-19T23:32:34.527Z,8.90
2023-02-19T23:38:40.298Z,9.00
2023-02-19T23:44:29.508Z,9.10
2023-02-19T23:46:56.200Z,9.10
2023-02-19T23:49:23.198Z,9.10
2023-02-19T23:51:50.033Z,9.00
2023-02-19T23:54:16.984Z,9.00
2023-02-19T23:56:43.683Z,9.00
2023-02-19T23:59:10.482Z,9.10
